Time;durP1;ratioP1;P1;durP2;ratioP2;P2;SDS_P1;SDS_P2;PMS_P1;PMS_P2;Temp;Humidity;BMP_temperature;BMP_pressure;BME280_temperature;BME280_humidity;BME280_pressure;Samples;Min_cycle;Max_cycle;Signal;HPM_P1;HPM_P2
2024/01/26 00:00:24;;;;;;;36.58;15.25;;;9.30;92.50;;;;;;5129008;27;20326;-70
2024/01/26 00:02:55;;;;;;;40.60;15.65;;;9.30;92.50;;;;;;5119001;27;20051;-71
2024/01/26 00:05:25;;;;;;;36.78;15.70;;;9.40;92.50;;;;;;5118635;27;20524;-71
2024/01/26 00:07:57;;;;;;;33.95;13.48;;;9.40;92.50;;;;;;5132636;27;20128;-70
2024/01/26 00:10:26;;;;;;;34.93;13.93;;;9.40;92.40;;;;;;5168680;27;21147;-72
2024/01/26 00:12:56;;;;;;;37.58;14.30;;;9.40;92.50;;;;;;5138621;27;20276;-72
2024/01/26 00:15:27;;;;;;;39.40;15.30;;;9.40;92.40;;;;;;5132450;27;20055;-71
2024/01/26 00:17:57;;;;;;;37.10;14.27;;;9.40;92.50;;;;;;5134571;27;20050;-71
2024/01/26 00:20:30;;;;;;;39.50;15.40;;;9.40;92.40;;;;;;5118358;27;20093;-70
2024/01/26 00:23:01;;;;;;;36.43;14.33;;;9.40;92.40;;;;;;5135188;27;20055;-71
2024/01/26 00:25:33;;;;;;;35.05;14.93;;;9.40;92.40;;;;;;5154063;27;20439;-70
2024/01/26 00:28:04;;;;;;;39.13;15.60;;;9.40;92.40;;;;;;5117343;27;20043;-72
2024/01/26 00:30:36;;;;;;;38.53;16.15;;;9.50;92.40;;;;;;5116754;27;20047;-72
2024/01/26 00:33:05;;;;;;;35.47;14.40;;;9.50;92.40;;;;;;5134721;27;20051;-72
2024/01/26 00:35:34;;;;;;;39.40;17.37;;;9.50;92.40;;;;;;5117627;27;20078;-71
2024/01/26 00:38:07;;;;;;;34.20;14.50;;;9.50;92.40;;;;;;5153413;27;20336;-71
2024/01/26 00:40:37;;;;;;;38.20;15.63;;;9.50;92.40;;;;;;5132534;27;20058;-70
2024/01/26 00:43:09;;;;;;;36.38;15.05;;;9.60;92.40;;;;;;5134891;27;20055;-71
2024/01/26 00:45:40;;;;;;;34.60;14.65;;;9.60;92.30;;;;;;5124133;27;20051;-71
2024/01/26 00:48:10;;;;;;;36.67;16.80;;;9.60;92.30;;;;;;5139984;27;20051;-72
2024/01/26 00:50:41;;;;;;;31.85;14.23;;;9.60;92.30;;;;;;5138326;27;20292;-71
2024/01/26 00:53:11;;;;;;;34.08;14.18;;;9.60;92.30;;;;;;5127392;27;20051;-72
2024/01/26 00:55:46;;;;;;;31.65;14.45;;;9.60;92.30;;;;;;5139334;27;20042;-70
2024/01/26 00:58:16;;;;;;;29.17;11.90;;;9.60;92.30;;;;;;5123097;27;21086;-70
2024/01/26 01:00:57;;;;;;;31.87;13.17;;;9.70;92.20;;;;;;5153207;27;20051;-71
2024/01/26 01:03:28;;;;;;;29.02;13.57;;;9.70;92.10;;;;;;5134209;27;20296;-70
2024/01/26 01:06:03;;;;;;;32.85;12.98;;;9.70;92.10;;;;;;5145976;27;20779;-71
2024/01/26 01:08:39;;;;;;;32.45;13.48;;;9.70;92.00;;;;;;5159893;27;20558;-71
2024/01/26 01:11:08;;;;;;;33.13;14.60;;;9.70;92.00;;;;;;5133738;27;20086;-70
2024/01/26 01:13:38;;;;;;;33.23;15.13;;;9.80;92.00;;;;;;5134259;27;20050;-72
2024/01/26 01:16:12;;;;;;;33.65;14.90;;;9.80;92.00;;;;;;5145169;27;21028;-70
2024/01/26 01:18:50;;;;;;;27.05;11.38;;;9.80;91.90;;;;;;5135094;27;20051;-71
2024/01/26 01:21:22;;;;;;;30.27;12.98;;;9.80;91.90;;;;;;5151153;27;20035;-70
2024/01/26 01:23:52;;;;;;;35.00;15.05;;;9.80;91.80;;;;;;5141530;27;20046;-72
2024/01/26 01:26:22;;;;;;;30.53;13.73;;;9.80;91.80;;;;;;5137160;27;20058;-71
2024/01/26 01:28:55;;;;;;;32.28;13.73;;;9.90;91.80;;;;;;5138088;27;20766;-70
2024/01/26 01:31:28;;;;;;;33.45;15.65;;;9.80;91.70;;;;;;5151412;27;20112;-70
2024/01/26 01:34:05;;;;;;;31.70;15.35;;;9.90;91.70;;;;;;5154376;27;20849;-70
2024/01/26 01:36:35;;;;;;;34.03;16.13;;;9.90;91.70;;;;;;5117311;27;20073;-70
2024/01/26 01:39:07;;;;;;;31.27;15.23;;;9.90;91.70;;;;;;5134580;27;20602;-72
2024/01/26 01:41:38;;;;;;;31.15;13.90;;;10.00;91.60;;;;;;5129586;27;20276;-72
2024/01/26 01:44:09;;;;;;;26.90;11.48;;;10.00;91.50;;;;;;5131232;27;20107;-70
2024/01/26 01:46:42;;;;;;;27.40;12.93;;;10.00;91.50;;;;;;5170715;27;20082;-71
2024/01/26 01:49:12;;;;;;;30.75;14.27;;;10.00;91.40;;;;;;5140864;27;20090;-72
2024/01/26 01:51:55;;;;;;;31.03;14.43;;;10.00;91.20;;;;;;5130446;27;20860;-72
2024/01/26 01:54:26;;;;;;;30.25;14.75;;;10.00;91.20;;;;;;5128352;27;20283;-71
2024/01/26 01:56:57;;;;;;;29.35;14.07;;;10.00;91.20;;;;;;5114034;27;20072;-72
2024/01/26 01:59:28;;;;;;;30.55;14.10;;;10.00;91.10;;;;;;5147968;27;20146;-70
2024/01/26 02:02:04;;;;;;;26.25;12.82;;;10.00;91.00;;;;;;5133506;27;20047;-72
2024/01/26 02:04:33;;;;;;;26.53;12.73;;;10.00;90.90;;;;;;5153600;27;20058;-70
2024/01/26 02:07:08;;;;;;;24.55;11.82;;;10.00;90.80;;;;;;5133096;27;20399;-72
2024/01/26 02:09:40;;;;;;;25.73;11.60;;;10.00;90.70;;;;;;5136882;27;20944;-70
2024/01/26 02:12:11;;;;;;;26.92;12.95;;;10.00;90.70;;;;;;5122114;27;20047;-72
2024/01/26 02:14:44;;;;;;;24.73;12.07;;;10.10;90.50;;;;;;5116597;27;20130;-71
2024/01/26 02:17:35;;;;;;;25.67;13.90;;;10.10;90.50;;;;;;5151665;27;20046;-71
2024/01/26 02:20:09;;;;;;;24.65;12.30;;;10.10;90.40;;;;;;5116832;27;20269;-70
2024/01/26 02:22:38;;;;;;;25.33;11.60;;;10.10;90.00;;;;;;5131122;27;20139;-72
2024/01/26 02:25:14;;;;;;;24.88;12.00;;;10.10;90.00;;;;;;5114871;27;20042;-72
2024/01/26 02:27:43;;;;;;;23.83;11.38;;;10.10;89.90;;;;;;5116862;27;20104;-71
2024/01/26 02:30:16;;;;;;;25.27;12.10;;;10.10;89.90;;;;;;5132661;27;20107;-72
2024/01/26 02:32:47;;;;;;;24.10;12.25;;;10.10;89.80;;;;;;5151275;27;20417;-72
2024/01/26 02:35:21;;;;;;;21.02;10.75;;;10.10;89.70;;;;;;5115490;27;20115;-72
2024/01/26 02:37:53;;;;;;;22.42;10.55;;;10.10;89.60;;;;;;5118986;27;20055;-72
2024/01/26 02:40:26;;;;;;;21.67;11.50;;;10.10;89.50;;;;;;5132717;27;20116;-73
2024/01/26 02:43:00;;;;;;;23.70;11.63;;;10.20;89.40;;;;;;5151796;27;20067;-72
2024/01/26 02:45:32;;;;;;;23.42;11.77;;;10.20;89.40;;;;;;5141704;27;20297;-71
2024/01/26 02:48:01;;;;;;;19.88;10.45;;;10.20;89.20;;;;;;5154043;27;20085;-72
2024/01/26 02:50:33;;;;;;;21.95;10.80;;;10.20;89.10;;;;;;5133184;27;20072;-72
2024/01/26 02:53:02;;;;;;;19.08;8.88;;;10.10;89.10;;;;;;5136668;27;20091;-72
2024/01/26 02:55:35;;;;;;;22.07;10.60;;;10.10;89.20;;;;;;5154296;27;20122;-72
2024/01/26 02:58:05;;;;;;;21.45;11.85;;;10.20;89.10;;;;;;5132163;27;20268;-70
2024/01/26 03:00:35;;;;;;;20.98;10.85;;;10.20;89.00;;;;;;5126820;27;20467;-70
2024/01/26 03:03:07;;;;;;;20.80;10.38;;;10.20;88.90;;;;;;5131856;27;20055;-71
2024/01/26 03:05:36;;;;;;;17.60;8.50;;;10.20;89.00;;;;;;5131283;27;20055;-70
2024/01/26 03:08:10;;;;;;;20.90;10.83;;;10.20;89.00;;;;;;5133080;27;20105;-72
2024/01/26 03:10:42;;;;;;;19.10;9.77;;;10.20;89.00;;;;;;5114525;27;20301;-71
2024/01/26 03:13:11;;;;;;;19.38;9.82;;;10.20;89.00;;;;;;5115894;27;20530;-71
2024/01/26 03:15:49;;;;;;;21.13;10.30;;;10.20;89.10;;;;;;5137374;27;20046;-72
2024/01/26 03:18:22;;;;;;;22.65;12.10;;;10.20;89.00;;;;;;5153052;27;20050;-72
2024/01/26 03:20:52;;;;;;;21.17;10.70;;;10.20;89.00;;;;;;5169878;27;20067;-72
2024/01/26 03:23:21;;;;;;;20.55;10.88;;;10.20;89.00;;;;;;5153360;27;20334;-71
2024/01/26 03:25:53;;;;;;;20.38;11.15;;;10.20;89.00;;;;;;5126553;27;20048;-70
2024/01/26 03:28:26;;;;;;;20.55;10.60;;;10.30;89.00;;;;;;5115735;27;20118;-70
2024/01/26 03:30:58;;;;;;;20.67;11.00;;;10.30;89.00;;;;;;5132565;27;20094;-71
2024/01/26 03:33:27;;;;;;;21.17;10.93;;;10.20;89.10;;;;;;5120017;27;20168;-70
2024/01/26 03:35:56;;;;;;;19.17;10.20;;;10.20;89.30;;;;;;5115414;27;20285;-70
2024/01/26 03:38:28;;;;;;;21.80;10.63;;;10.30;89.40;;;;;;5114285;27;20051;-71
2024/01/26 03:40:59;;;;;;;21.08;10.82;;;10.30;89.40;;;;;;5123226;27;20139;-70
2024/01/26 03:43:30;;;;;;;22.15;10.43;;;10.30;89.50;;;;;;5131811;27;20051;-72
2024/01/26 03:46:01;;;;;;;19.33;10.27;;;10.20;89.50;;;;;;5144630;27;20912;-70
2024/01/26 03:48:33;;;;;;;21.33;10.00;;;10.30;89.60;;;;;;5139293;27;20248;-70
2024/01/26 03:51:03;;;;;;;21.58;10.85;;;10.20;89.60;;;;;;5126965;27;20055;-70
2024/01/26 03:53:34;;;;;;;23.08;11.05;;;10.20;89.70;;;;;;5135890;27;20075;-70
2024/01/26 03:56:06;;;;;;;21.10;10.65;;;10.30;89.80;;;;;;5118169;27;20061;-72
2024/01/26 03:58:36;;;;;;;20.60;10.00;;;10.30;89.90;;;;;;5118018;27;20051;-73
2024/01/26 04:01:05;;;;;;;22.13;10.35;;;10.30;89.80;;;;;;5127326;27;20242;-72
2024/01/26 04:03:38;;;;;;;20.73;10.18;;;10.30;89.90;;;;;;5119392;27;20106;-72
2024/01/26 04:06:09;;;;;;;19.52;9.88;;;10.30;90.00;;;;;;5154272;27;20051;-72
2024/01/26 04:08:41;;;;;;;23.08;11.70;;;10.30;90.10;;;;;;5131595;27;20077;-70
2024/01/26 04:11:13;;;;;;;21.30;10.00;;;10.30;90.10;;;;;;5138331;27;20086;-70
2024/01/26 04:13:44;;;;;;;19.73;9.75;;;10.30;90.00;;;;;;5120348;27;20254;-70
2024/01/26 04:16:15;;;;;;;22.75;11.45;;;10.30;90.10;;;;;;5146339;27;20051;-70
2024/01/26 04:18:47;;;;;;;19.27;8.63;;;10.30;90.20;;;;;;5120146;27;20055;-70
2024/01/26 04:21:23;;;;;;;20.67;10.18;;;10.30;90.10;;;;;;5135144;27;20046;-70
2024/01/26 04:23:53;;;;;;;18.27;9.37;;;10.40;90.20;;;;;;5137549;27;20063;-71
2024/01/26 04:26:30;;;;;;;19.65;10.32;;;10.40;90.30;;;;;;5145886;27;20268;-70
2024/01/26 04:29:02;;;;;;;23.45;11.13;;;10.40;90.30;;;;;;5136662;27;20135;-72
2024/01/26 04:31:33;;;;;;;21.00;9.98;;;10.40;90.20;;;;;;5118164;27;20108;-71
2024/01/26 04:34:07;;;;;;;22.88;10.85;;;10.40;90.20;;;;;;5146691;27;20142;-70
2024/01/26 04:36:38;;;;;;;22.70;11.67;;;10.40;90.20;;;;;;5156567;27;20095;-72
2024/01/26 04:39:11;;;;;;;20.67;10.98;;;10.50;90.30;;;;;;5102271;27;20249;-70
2024/01/26 04:41:43;;;;;;;20.67;10.23;;;10.50;90.30;;;;;;5149422;27;20116;-71
2024/01/26 04:44:15;;;;;;;22.80;12.32;;;10.50;90.30;;;;;;5153333;27;20070;-72
2024/01/26 04:46:47;;;;;;;22.95;11.15;;;10.50;90.40;;;;;;5134408;27;20078;-71
2024/01/26 04:49:17;;;;;;;20.53;11.03;;;10.50;90.40;;;;;;5131831;27;20137;-71
2024/01/26 04:51:47;;;;;;;24.83;10.43;;;10.60;90.30;;;;;;5142767;27;20333;-72
2024/01/26 04:54:16;;;;;;;22.83;11.23;;;10.50;90.30;;;;;;5155708;27;20700;-70
2024/01/26 04:56:48;;;;;;;24.25;12.30;;;10.60;90.40;;;;;;5118885;27;20123;-72
2024/01/26 04:59:21;;;;;;;20.95;10.32;;;10.60;90.40;;;;;;5133560;27;20520;-71
2024/01/26 05:02:04;;;;;;;24.00;13.20;;;10.60;90.40;;;;;;5118653;27;20551;-72
2024/01/26 05:04:35;;;;;;;21.48;11.82;;;10.60;90.40;;;;;;5134874;27;20250;-71
2024/01/26 05:07:07;;;;;;;20.83;11.00;;;10.60;90.40;;;;;;5117740;27;20142;-72
2024/01/26 05:09:38;;;;;;;22.27;11.73;;;10.60;90.30;;;;;;5118412;27;20055;-70
2024/01/26 05:12:11;;;;;;;22.40;13.63;;;10.60;90.30;;;;;;5118084;27;20199;-73
2024/01/26 05:14:42;;;;;;;23.07;11.40;;;10.70;90.40;;;;;;5118405;27;20139;-71
2024/01/26 05:17:15;;;;;;;25.38;13.85;;;10.70;90.30;;;;;;5128471;27;20269;-70
2024/01/26 05:19:46;;;;;;;23.42;14.38;;;10.70;90.40;;;;;;5154064;27;20047;-71
2024/01/26 05:22:17;;;;;;;22.33;13.38;;;10.80;90.30;;;;;;5117431;27;20054;-70
2024/01/26 05:24:48;;;;;;;23.25;13.27;;;10.80;90.20;;;;;;5117870;27;20051;-71
2024/01/26 05:27:22;;;;;;;21.27;12.13;;;10.80;90.20;;;;;;5153624;27;20433;-70
2024/01/26 05:29:50;;;;;;;24.40;13.88;;;10.80;90.10;;;;;;5117306;27;20354;-72
2024/01/26 05:32:23;;;;;;;23.75;12.32;;;10.80;90.20;;;;;;5135822;27;20071;-70
2024/01/26 05:34:55;;;;;;;21.65;12.73;;;10.80;90.10;;;;;;5121748;27;20134;-72
2024/01/26 05:37:26;;;;;;;23.88;11.32;;;10.90;90.10;;;;;;5135611;27;20061;-72
2024/01/26 05:39:56;;;;;;;23.63;12.77;;;10.90;90.00;;;;;;5118296;27;20047;-70
2024/01/26 05:42:29;;;;;;;23.73;13.00;;;10.90;90.00;;;;;;5116835;27;21121;-70
2024/01/26 05:45:06;;;;;;;21.98;11.52;;;10.90;90.10;;;;;;5152742;27;20384;-71
2024/01/26 05:47:37;;;;;;;20.10;11.27;;;10.90;90.20;;;;;;5153752;27;20051;-71
2024/01/26 05:50:09;;;;;;;23.30;11.90;;;10.90;90.10;;;;;;5118361;27;20078;-72
2024/01/26 05:52:37;;;;;;;23.40;12.33;;;10.90;90.00;;;;;;5132334;27;20043;-71
2024/01/26 05:55:11;;;;;;;23.33;10.95;;;10.90;90.20;;;;;;5117924;27;20226;-70
2024/01/26 05:57:45;;;;;;;21.60;11.70;;;10.90;90.30;;;;;;5135187;27;20047;-71
2024/01/26 06:00:16;;;;;;;21.90;11.93;;;10.90;90.40;;;;;;5117535;27;20130;-71
2024/01/26 06:02:58;;;;;;;18.52;9.43;;;10.90;90.40;;;;;;5155077;27;20051;-70
2024/01/26 06:05:28;;;;;;;19.00;9.83;;;10.90;90.40;;;;;;5138780;27;20782;-70
2024/01/26 06:10:47;;;;;;;18.98;9.70;;;10.90;90.50;;;;;;5152872;27;20365;-71
2024/01/26 06:13:29;;;;;;;21.90;9.95;;;10.90;90.40;;;;;;5153435;27;20511;-70
2024/01/26 06:16:01;;;;;;;21.55;10.38;;;10.90;90.60;;;;;;5119025;27;20047;-71
2024/01/26 06:18:33;;;;;;;21.73;10.47;;;10.90;90.70;;;;;;5162509;27;20057;-72
2024/01/26 06:21:06;;;;;;;18.60;9.82;;;10.90;90.80;;;;;;5149203;27;20889;-72
2024/01/26 06:23:50;;;;;;;22.20;11.88;;;10.90;90.60;;;;;;5134440;27;20046;-72
2024/01/26 06:26:25;;;;;;;17.33;9.05;;;10.90;90.80;;;;;;5145363;27;20042;-72
2024/01/26 06:28:56;;;;;;;18.25;10.50;;;10.90;90.80;;;;;;5144818;27;20054;-71
2024/01/26 06:31:27;;;;;;;18.87;10.20;;;10.90;91.00;;;;;;5149455;27;20053;-71
2024/01/26 06:33:56;;;;;;;20.30;10.90;;;11.00;91.00;;;;;;5152829;27;20399;-71
2024/01/26 06:36:25;;;;;;;20.02;11.50;;;11.00;91.00;;;;;;5148735;27;20114;-73
2024/01/26 06:38:57;;;;;;;19.17;10.50;;;11.00;91.10;;;;;;5151653;27;20104;-71
2024/01/26 06:41:26;;;;;;;19.73;9.90;;;11.00;91.10;;;;;;5150058;27;20050;-71
2024/01/26 06:43:56;;;;;;;17.30;9.90;;;11.00;91.00;;;;;;5131342;27;20134;-71
2024/01/26 06:46:27;;;;;;;17.45;10.18;;;11.00;90.90;;;;;;5151873;27;20284;-70
2024/01/26 06:49:01;;;;;;;16.92;8.60;;;11.10;91.00;;;;;;5144488;27;20413;-71
2024/01/26 06:51:34;;;;;;;16.90;9.65;;;11.10;90.90;;;;;;5161366;27;20712;-71
2024/01/26 06:54:06;;;;;;;16.88;8.75;;;11.10;91.00;;;;;;5136367;27;20132;-70
2024/01/26 06:56:40;;;;;;;12.67;7.13;;;11.10;91.10;;;;;;5148592;27;20038;-70
2024/01/26 06:59:15;;;;;;;16.00;8.60;;;11.10;91.20;;;;;;5134583;27;21013;-71
2024/01/26 07:01:46;;;;;;;15.73;8.45;;;11.10;91.20;;;;;;5159139;27;20368;-71
2024/01/26 07:04:14;;;;;;;14.20;7.90;;;11.10;91.20;;;;;;5151579;27;20062;-70
2024/01/26 07:06:42;;;;;;;12.13;7.15;;;11.10;91.10;;;;;;5132599;27;20439;-70
2024/01/26 07:09:09;;;;;;;11.90;6.07;;;11.10;91.20;;;;;;5143581;27;20055;-70
2024/01/26 07:11:38;;;;;;;11.63;7.15;;;11.10;91.20;;;;;;5133618;27;20256;-71
2024/01/26 07:14:05;;;;;;;11.30;7.03;;;11.10;91.20;;;;;;5147942;27;20082;-72
2024/01/26 07:16:33;;;;;;;11.90;6.88;;;11.20;91.20;;;;;;5130202;27;20114;-71
2024/01/26 07:19:01;;;;;;;11.57;6.55;;;11.20;91.10;;;;;;5162333;27;20051;-71
2024/01/26 07:21:28;;;;;;;10.87;6.37;;;11.20;91.10;;;;;;5147113;27;20065;-72
2024/01/26 07:23:55;;;;;;;12.20;7.13;;;11.20;91.00;;;;;;5171564;27;20359;-71
2024/01/26 07:26:22;;;;;;;10.07;5.18;;;11.20;91.00;;;;;;5149221;27;20104;-71
2024/01/26 07:28:50;;;;;;;10.15;5.20;;;11.20;91.10;;;;;;5119717;27;20606;-70
2024/01/26 07:31:17;;;;;;;11.68;5.85;;;11.20;91.10;;;;;;5150284;27;20043;-71
2024/01/26 07:33:45;;;;;;;9.93;5.00;;;11.20;91.10;;;;;;5131884;27;20055;-70
2024/01/26 07:36:13;;;;;;;9.20;4.93;;;11.20;91.10;;;;;;5115856;27;20252;-70
2024/01/26 07:38:40;;;;;;;9.07;5.40;;;11.20;91.00;;;;;;5150838;27;20155;-71
2024/01/26 07:41:07;;;;;;;11.23;5.85;;;11.20;91.20;;;;;;5150434;27;20863;-70
2024/01/26 07:43:34;;;;;;;11.98;6.38;;;11.30;91.20;;;;;;5168956;27;20053;-71
2024/01/26 07:46:01;;;;;;;9.73;4.93;;;11.30;91.20;;;;;;5165161;27;20525;-70
2024/01/26 07:48:28;;;;;;;9.63;5.50;;;11.30;91.10;;;;;;5150423;27;20366;-71
2024/01/26 07:50:57;;;;;;;8.15;4.65;;;11.30;91.20;;;;;;5114857;27;20055;-70
2024/01/26 07:53:24;;;;;;;8.77;4.80;;;11.30;91.10;;;;;;5129691;27;20497;-70
2024/01/26 07:55:51;;;;;;;9.52;4.68;;;11.30;91.10;;;;;;5129998;27;20051;-70
2024/01/26 07:58:18;;;;;;;8.63;4.50;;;11.30;91.20;;;;;;5130857;27;20043;-71
2024/01/26 08:00:47;;;;;;;8.48;4.75;;;11.30;91.20;;;;;;5150737;27;20310;-70
2024/01/26 08:03:14;;;;;;;8.18;3.75;;;11.30;91.30;;;;;;5148058;27;20061;-70
2024/01/26 08:05:41;;;;;;;7.60;4.28;;;11.30;91.50;;;;;;5130179;27;20051;-70
2024/01/26 08:08:10;;;;;;;7.30;3.88;;;11.30;91.50;;;;;;5129942;27;20798;-70
2024/01/26 08:10:37;;;;;;;7.30;4.07;;;11.30;91.50;;;;;;5150785;27;20055;-70
2024/01/26 08:13:04;;;;;;;6.13;3.13;;;11.30;91.60;;;;;;5172516;27;20776;-71
2024/01/26 08:15:31;;;;;;;5.90;3.20;;;11.30;91.50;;;;;;5116470;27;20048;-70
2024/01/26 08:17:59;;;;;;;6.20;3.20;;;11.30;91.60;;;;;;5132787;27;20086;-70
2024/01/26 08:20:26;;;;;;;5.40;2.38;;;11.30;91.80;;;;;;5131532;27;20134;-71
2024/01/26 08:22:53;;;;;;;6.70;3.57;;;11.30;91.70;;;;;;5132266;27;20524;-71
2024/01/26 08:25:21;;;;;;;7.10;3.25;;;11.30;91.70;;;;;;5132053;27;20277;-70
2024/01/26 08:27:49;;;;;;;7.90;4.47;;;11.30;91.70;;;;;;5156677;27;20152;-70
2024/01/26 08:30:16;;;;;;;7.60;4.38;;;11.40;91.70;;;;;;5154619;27;20051;-71
2024/01/26 08:32:45;;;;;;;7.25;3.75;;;11.40;91.60;;;;;;5149578;27;20551;-70
2024/01/26 08:35:13;;;;;;;8.37;4.50;;;11.40;91.60;;;;;;5143237;27;20043;-72
2024/01/26 08:37:40;;;;;;;6.82;3.25;;;11.40;91.60;;;;;;5131376;27;20356;-70
2024/01/26 08:40:09;;;;;;;9.10;5.18;;;11.40;91.60;;;;;;5120346;27;20099;-71
2024/01/26 08:42:37;;;;;;;7.63;4.80;;;11.40;91.60;;;;;;5172062;27;20047;-71
2024/01/26 08:45:05;;;;;;;10.02;6.50;;;11.40;91.60;;;;;;5138232;27;20086;-69
2024/01/26 08:47:32;;;;;;;7.57;4.17;;;11.50;91.50;;;;;;5151157;27;20047;-70
2024/01/26 08:49:59;;;;;;;11.35;6.47;;;11.50;91.30;;;;;;5114775;27;20245;-70
2024/01/26 08:52:27;;;;;;;10.00;6.00;;;11.50;91.40;;;;;;5131758;27;20067;-70
2024/01/26 08:54:54;;;;;;;9.38;4.55;;;11.50;91.30;;;;;;5113971;27;20039;-70
2024/01/26 08:57:21;;;;;;;9.95;5.18;;;11.50;91.00;;;;;;5131491;27;20083;-70
2024/01/26 08:59:50;;;;;;;10.10;6.10;;;11.50;91.00;;;;;;5132335;27;20137;-71
2024/01/26 09:02:17;;;;;;;9.57;5.57;;;11.50;91.10;;;;;;5161370;27;20263;-70
2024/01/26 09:04:44;;;;;;;8.20;4.78;;;11.50;91.10;;;;;;5162174;27;20077;-70
2024/01/26 09:07:11;;;;;;;9.77;4.97;;;11.50;90.90;;;;;;5131312;27;20102;-70
2024/01/26 09:09:39;;;;;;;7.97;3.63;;;11.50;90.70;;;;;;5120662;27;20061;-72
2024/01/26 09:12:06;;;;;;;9.70;4.53;;;11.50;90.50;;;;;;5134406;27;20062;-71
2024/01/26 09:14:33;;;;;;;10.35;4.72;;;11.50;90.50;;;;;;5152087;27;20250;-70
2024/01/26 09:17:02;;;;;;;9.98;4.60;;;11.50;90.50;;;;;;5134519;27;20074;-71
2024/01/26 09:19:29;;;;;;;7.85;3.90;;;11.50;90.40;;;;;;5147924;27;20134;-70
2024/01/26 09:21:56;;;;;;;9.10;3.65;;;11.60;89.70;;;;;;5151521;27;20073;-70
2024/01/26 09:24:23;;;;;;;7.20;2.60;;;11.60;89.60;;;;;;5170845;27;20090;-71
2024/01/26 09:26:50;;;;;;;8.15;3.38;;;11.60;89.40;;;;;;5151552;27;20451;-70
2024/01/26 09:29:17;;;;;;;7.30;1.70;;;11.50;89.70;;;;;;5114109;27;20134;-71
2024/01/26 09:31:44;;;;;;;3.80;0.70;;;11.40;87.50;;;;;;5129209;27;20051;-70
2024/01/26 09:34:13;;;;;;;2.60;0.30;;;11.00;83.30;;;;;;5148897;27;20868;-71
2024/01/26 09:36:40;;;;;;;2.90;0.40;;;10.70;81.00;;;;;;5166940;27;20050;-70
2024/01/26 09:39:08;;;;;;;3.40;0.60;;;10.50;81.00;;;;;;5170227;27;20256;-70
2024/01/26 09:41:35;;;;;;;4.32;0.45;;;10.20;82.30;;;;;;5130082;27;20146;-70
2024/01/26 09:44:03;;;;;;;3.13;0.20;;;10.00;82.10;;;;;;5115018;27;20047;-69
2024/01/26 09:46:31;;;;;;;3.08;0.30;;;10.00;82.70;;;;;;5132532;27;20526;-70
2024/01/26 09:48:59;;;;;;;2.83;0.33;;;9.80;82.50;;;;;;5150463;27;20228;-69
2024/01/26 09:51:28;;;;;;;4.93;0.50;;;9.70;82.70;;;;;;5126914;27;20253;-70
2024/01/26 09:54:02;;;;;;;4.25;0.60;;;9.60;83.00;;;;;;5147308;27;20146;-70
2024/01/26 09:56:31;;;;;;;4.32;0.60;;;9.60;83.10;;;;;;5127945;27;20673;-70
2024/01/26 09:58:58;;;;;;;7.28;0.70;;;9.50;83.00;;;;;;5146483;27;20401;-71
2024/01/26 10:01:25;;;;;;;4.23;0.40;;;9.50;82.70;;;;;;5128251;27;20569;-69
2024/01/26 10:03:53;;;;;;;7.82;0.88;;;9.50;82.50;;;;;;5128377;27;21118;-70
2024/01/26 10:06:20;;;;;;;6.65;0.90;;;9.40;82.70;;;;;;5146987;27;20261;-70
2024/01/26 10:08:48;;;;;;;8.80;1.27;;;9.40;83.10;;;;;;5148918;27;20047;-69
2024/01/26 10:11:15;;;;;;;5.95;0.50;;;9.20;83.20;;;;;;5151669;27;20155;-70
2024/01/26 10:13:42;;;;;;;3.43;0.60;;;9.20;83.40;;;;;;5127925;27;20050;-70
2024/01/26 10:16:11;;;;;;;7.88;1.20;;;9.20;83.30;;;;;;5127959;27;20830;-69
2024/01/26 10:18:40;;;;;;;7.07;1.05;;;9.10;83.60;;;;;;5128991;27;20145;-70
2024/01/26 10:21:06;;;;;;;5.75;1.10;;;9.10;83.50;;;;;;5128420;27;20085;-69
2024/01/26 10:23:33;;;;;;;7.07;0.90;;;9.10;83.80;;;;;;5128707;27;20043;-70
2024/01/26 10:26:02;;;;;;;5.73;0.90;;;9.00;83.90;;;;;;5133678;27;20129;-70
2024/01/26 10:28:29;;;;;;;8.90;0.82;;;9.00;83.40;;;;;;5167863;27;20259;-70
2024/01/26 10:30:56;;;;;;;13.68;2.13;;;9.00;83.50;;;;;;5139477;27;20171;-71
2024/01/26 10:33:24;;;;;;;6.80;1.13;;;9.00;83.10;;;;;;5146629;27;20082;-70
2024/01/26 10:35:52;;;;;;;7.00;1.10;;;9.00;83.50;;;;;;5147022;27;20059;-70
2024/01/26 10:38:19;;;;;;;11.17;1.70;;;8.90;83.40;;;;;;5127956;27;20082;-70
2024/01/26 10:40:47;;;;;;;8.25;1.65;;;8.90;82.00;;;;;;5127336;27;20795;-69
2024/01/26 10:43:18;;;;;;;4.63;0.70;;;8.90;81.70;;;;;;5137257;27;20137;-70
2024/01/26 10:45:45;;;;;;;9.30;1.60;;;8.90;82.40;;;;;;5141991;27;20047;-69
2024/01/26 10:48:14;;;;;;;11.07;1.70;;;8.80;81.20;;;;;;5127502;27;20055;-69
2024/01/26 10:50:41;;;;;;;8.90;1.47;;;8.80;81.20;;;;;;5145716;27;20090;-70
2024/01/26 10:53:08;;;;;;;7.03;1.02;;;8.80;81.00;;;;;;5144902;27;20340;-70
2024/01/26 10:55:36;;;;;;;7.95;1.35;;;8.80;80.40;;;;;;5130719;27;20643;-69
2024/01/26 10:58:05;;;;;;;14.15;1.17;;;8.80;80.40;;;;;;5147792;27;20058;-70
2024/01/26 11:00:34;;;;;;;10.55;1.92;;;8.80;80.70;;;;;;5130045;27;20047;-70
2024/01/26 11:03:02;;;;;;;8.57;1.20;;;8.80;79.80;;;;;;5127800;27;20397;-69
2024/01/26 11:05:29;;;;;;;8.68;1.08;;;8.70;79.60;;;;;;5145653;27;21072;-69
2024/01/26 11:07:56;;;;;;;12.48;2.00;;;8.80;80.10;;;;;;5126902;27;20549;-70
2024/01/26 11:10:27;;;;;;;10.70;1.77;;;8.70;79.80;;;;;;5126475;27;20055;-70
2024/01/26 11:13:02;;;;;;;10.25;1.42;;;8.70;80.10;;;;;;5126916;27;20122;-69
2024/01/26 11:15:30;;;;;;;9.50;1.70;;;8.60;80.20;;;;;;5126837;27;20508;-70
2024/01/26 11:17:59;;;;;;;10.98;1.70;;;8.60;78.90;;;;;;5143131;27;20329;-70
2024/01/26 11:20:29;;;;;;;14.73;2.35;;;8.60;79.00;;;;;;5146001;27;20063;-70
2024/01/26 11:23:00;;;;;;;12.80;2.33;;;8.60;78.10;;;;;;5146738;27;20553;-70
2024/01/26 11:25:27;;;;;;;12.65;2.33;;;8.60;77.80;;;;;;5139952;27;20055;-69
2024/01/26 11:28:01;;;;;;;10.73;1.40;;;8.60;78.00;;;;;;5128279;27;20331;-70
2024/01/26 11:30:29;;;;;;;6.90;1.10;;;8.60;78.40;;;;;;5145603;27;20576;-70
2024/01/26 11:32:58;;;;;;;11.20;2.08;;;8.50;78.20;;;;;;5147367;27;20053;-70
2024/01/26 11:35:25;;;;;;;10.80;1.73;;;8.50;77.70;;;;;;5147758;27;20134;-70
2024/01/26 11:37:53;;;;;;;7.40;1.42;;;8.50;77.10;;;;;;5147081;27;20067;-70
2024/01/26 11:40:21;;;;;;;10.77;1.80;;;8.50;76.20;;;;;;5145600;27;20069;-70
2024/01/26 11:42:48;;;;;;;11.93;1.90;;;8.50;76.00;;;;;;5134745;27;20266;-69
2024/01/26 11:45:35;;;;;;;6.22;1.30;;;8.40;76.10;;;;;;5126672;27;20120;-70
2024/01/26 11:48:07;;;;;;;8.13;1.27;;;8.40;75.90;;;;;;5126566;27;20051;-70
2024/01/26 11:50:33;;;;;;;9.82;1.13;;;8.50;76.40;;;;;;5134808;27;20054;-70
2024/01/26 11:53:00;;;;;;;10.50;1.37;;;8.50;75.80;;;;;;5166524;27;20509;-70
2024/01/26 11:55:29;;;;;;;8.65;1.35;;;8.40;75.50;;;;;;5147384;27;20714;-70
2024/01/26 11:57:55;;;;;;;14.43;2.65;;;8.40;76.10;;;;;;5147294;27;20542;-71
2024/01/26 12:00:23;;;;;;;8.95;1.40;;;8.40;75.00;;;;;;5153535;27;20078;-70
2024/01/26 12:02:50;;;;;;;16.50;2.75;;;8.40;75.20;;;;;;5145191;27;20125;-69
2024/01/26 12:05:19;;;;;;;12.47;2.20;;;8.40;75.40;;;;;;5127233;27;20071;-70
2024/01/26 12:07:47;;;;;;;13.50;1.92;;;8.30;75.10;;;;;;5156963;27;20345;-70
2024/01/26 12:10:14;;;;;;;8.43;1.30;;;8.30;75.80;;;;;;5151674;27;20096;-70
2024/01/26 12:12:42;;;;;;;12.43;2.63;;;8.30;75.70;;;;;;5157058;27;20048;-70
2024/01/26 12:15:10;;;;;;;13.80;2.20;;;8.30;75.20;;;;;;5130639;27;20057;-70
2024/01/26 12:17:37;;;;;;;13.57;1.80;;;8.30;75.90;;;;;;5129690;27;20838;-70
2024/01/26 12:20:08;;;;;;;7.05;1.38;;;8.20;75.90;;;;;;5130468;27;20311;-70
2024/01/26 12:22:36;;;;;;;10.68;1.50;;;8.20;76.70;;;;;;5148574;27;20058;-69
2024/01/26 12:25:05;;;;;;;10.25;1.70;;;8.30;76.10;;;;;;5143096;27;20051;-69
2024/01/26 12:27:32;;;;;;;14.13;2.70;;;8.20;76.20;;;;;;5139354;27;20479;-71
2024/01/26 12:29:59;;;;;;;11.30;1.83;;;8.20;76.00;;;;;;5149011;27;20134;-71
2024/01/26 12:32:26;;;;;;;13.38;2.17;;;8.20;76.10;;;;;;5129692;27;20348;-71
2024/01/26 12:34:53;;;;;;;14.82;2.78;;;8.10;76.00;;;;;;5130358;27;20145;-70
2024/01/26 12:37:21;;;;;;;10.23;1.95;;;8.10;75.70;;;;;;5130116;27;20067;-71
2024/01/26 12:39:49;;;;;;;14.90;2.58;;;8.10;75.30;;;;;;5133145;27;20047;-70
2024/01/26 12:42:16;;;;;;;7.43;1.67;;;8.10;74.90;;;;;;5147229;27;20132;-70
2024/01/26 12:44:43;;;;;;;12.60;2.05;;;8.00;74.70;;;;;;5130024;27;20299;-71
2024/01/26 12:47:10;;;;;;;15.18;2.53;;;8.00;75.10;;;;;;5129626;27;20142;-69
2024/01/26 12:49:37;;;;;;;14.02;2.33;;;8.10;75.60;;;;;;5129943;27;20078;-71
2024/01/26 12:52:05;;;;;;;13.68;2.58;;;8.10;75.30;;;;;;5134383;27;20050;-70
2024/01/26 12:54:32;;;;;;;11.57;2.13;;;8.00;75.00;;;;;;5169357;27;20503;-70